createdAt,value
2018-05-11T00:00:14.787Z,100451.77
2018-05-11T00:02:42.249Z,100464.80
2018-05-11T00:05:09.676Z,100461.09
2018-05-11T00:07:37.692Z,100469.36
2018-05-11T00:10:05.148Z,100463.13
2018-05-11T00:12:32.678Z,100467.48
2018-05-11T00:15:00.205Z,100462.84
2018-05-11T00:17:27.803Z,100474.11
2018-05-11T00:19:55.394Z,100471.34
2018-05-11T00:22:22.936Z,100477.92
2018-05-11T00:24:50.442Z,100479.34
2018-05-11T00:27:18.912Z,100482.55
2018-05-11T00:32:39.211Z,100481.55
2018-05-11T00:35:06.703Z,100484.38
2018-05-11T00:37:34.634Z,100492.60
2018-05-11T00:40:02.091Z,100493.58
2018-05-11T00:42:29.561Z,100495.20
2018-05-11T00:44:57.004Z,100503.17
2018-05-11T00:47:24.899Z,100494.80
2018-05-11T00:49:52.348Z,100500.73
2018-05-11T00:52:20.056Z,100503.82
2018-05-11T00:54:48.648Z,100510.78
2018-05-11T00:57:17.244Z,100504.95
2018-05-11T00:59:44.720Z,100509.52
2018-05-11T01:02:12.256Z,100515.67
2018-05-11T01:04:39.828Z,100513.78
2018-05-11T01:07:07.420Z,100516.92
2018-05-11T01:09:34.946Z,100519.11
2018-05-11T01:12:02.526Z,100517.28
2018-05-11T01:14:30.096Z,100521.69
2018-05-11T01:16:57.742Z,100522.63
2018-05-11T01:19:49.008Z,100528.52
2018-05-11T01:22:16.556Z,100530.69
2018-05-11T01:24:44.074Z,100531.16
2018-05-11T01:27:11.604Z,100542.16
2018-05-11T01:29:39.170Z,100544.64
2018-05-11T01:32:06.708Z,100548.10
2018-05-11T01:34:34.359Z,100546.92
2018-05-11T01:37:01.854Z,100547.34
2018-05-11T01:39:34.366Z,100539.08
2018-05-11T01:42:02.112Z,100546.38
2018-05-11T01:44:29.646Z,100546.19
2018-05-11T01:46:57.210Z,100543.07
2018-05-11T01:52:17.180Z,100541.88
2018-05-11T01:54:44.630Z,100537.48
2018-05-11T01:57:12.085Z,100540.48
2018-05-11T01:59:39.516Z,100542.35
2018-05-11T02:02:06.980Z,100543.39
2018-05-11T02:04:34.431Z,100544.20
2018-05-11T02:07:01.914Z,100546.23
2018-05-11T02:09:29.395Z,100552.20
2018-05-11T02:11:56.838Z,100549.59
2018-05-11T02:14:24.303Z,100550.90
2018-05-11T02:16:51.765Z,100560.59
2018-05-11T02:19:19.226Z,100566.19
2018-05-11T02:21:46.888Z,100562.61
2018-05-11T02:24:14.333Z,100573.79
2018-05-11T02:26:41.784Z,100570.86
2018-05-11T02:29:09.206Z,100579.61
2018-05-11T02:31:36.642Z,100579.73
2018-05-11T02:34:04.123Z,100580.86
2018-05-11T02:36:31.588Z,100578.86
2018-05-11T02:38:59.502Z,100581.08
2018-05-11T02:41:26.934Z,100586.12
2018-05-11T02:43:54.384Z,100583.91
2018-05-11T02:46:21.836Z,100593.03
2018-05-11T02:48:49.308Z,100598.89
2018-05-11T02:51:16.743Z,100595.59
2018-05-11T02:53:44.211Z,100594.47
2018-05-11T02:56:11.683Z,100599.25
2018-05-11T02:58:39.129Z,100601.86
2018-05-11T03:01:06.611Z,100608.90
2018-05-11T03:03:34.048Z,100608.65
2018-05-11T03:06:01.517Z,100608.30
2018-05-11T03:08:28.962Z,100618.44
2018-05-11T03:10:56.845Z,100613.86
2018-05-11T03:13:24.284Z,100620.36
2018-05-11T03:15:51.720Z,100622.77
2018-05-11T03:18:19.203Z,100633.07
2018-05-11T03:20:46.675Z,100631.19
2018-05-11T03:23:14.123Z,100637.20
2018-05-11T03:25:41.609Z,100635.08
2018-05-11T03:28:09.073Z,100641.42
2018-05-11T03:30:36.596Z,100645.90
2018-05-11T03:33:04.094Z,100647.50
2018-05-11T03:35:31.542Z,100650.02
2018-05-11T03:37:58.984Z,100650.44
2018-05-11T03:40:26.429Z,100654.09
2018-05-11T03:42:53.919Z,100658.22
2018-05-11T03:45:21.399Z,100662.12
2018-05-11T03:47:48.852Z,100663.73
2018-05-11T03:50:16.305Z,100663.46
2018-05-11T03:52:43.763Z,100659.03
2018-05-11T03:55:11.201Z,100653.03
2018-05-11T03:57:38.654Z,100661.41
2018-05-11T04:00:06.205Z,100659.77
2018-05-11T04:02:45.403Z,100658.21
2018-05-11T04:05:24.586Z,100666.09
2018-05-11T04:08:03.808Z,100662.58
2018-05-11T04:10:31.243Z,100665.42
2018-05-11T04:12:58.725Z,100663.77
2018-05-11T04:15:26.200Z,100662.53
2018-05-11T04:17:53.681Z,100661.72
2018-05-11T04:20:33.175Z,100667.63
2018-05-11T04:23:00.675Z,100667.93
2018-05-11T04:25:28.126Z,100666.24
2018-05-11T04:27:56.204Z,100669.55
2018-05-11T04:30:28.608Z,100671.80
2018-05-11T04:32:56.088Z,100669.80
2018-05-11T04:35:23.592Z,100680.30
2018-05-11T04:37:51.035Z,100680.41
2018-05-11T04:40:18.568Z,100688.43
2018-05-11T04:42:46.053Z,100690.95
2018-05-11T04:45:13.586Z,100704.89
2018-05-11T04:47:41.040Z,100706.28
2018-05-11T04:50:08.497Z,100713.58
2018-05-11T04:52:36.026Z,100712.61
2018-05-11T04:55:03.513Z,100713.95
2018-05-11T04:57:31.102Z,100716.00
2018-05-11T04:59:58.558Z,100715.01
2018-05-11T05:02:26.037Z,100717.07
2018-05-11T05:04:53.502Z,100716.29
2018-05-11T05:07:22.089Z,100715.79
2018-05-11T05:09:49.595Z,100719.03
2018-05-11T05:12:17.085Z,100727.19
2018-05-11T05:14:44.578Z,100735.92
2018-05-11T05:17:12.019Z,100732.11
2018-05-11T05:19:39.448Z,100735.72
2018-05-11T05:22:07.551Z,100739.28
2018-05-11T05:24:34.999Z,100733.88
2018-05-11T05:27:02.435Z,100734.12
2018-05-11T05:32:23.149Z,100740.57
2018-05-11T05:34:50.651Z,100739.38
2018-05-11T05:37:18.105Z,100739.59
2018-05-11T05:39:45.757Z,100742.31
2018-05-11T05:42:13.178Z,100745.53
2018-05-11T05:44:40.641Z,100745.43
2018-05-11T05:47:08.202Z,100747.85
2018-05-11T05:49:35.656Z,100749.80
2018-05-11T05:52:03.208Z,100748.11
2018-05-11T05:54:30.571Z,100751.47
2018-05-11T05:56:58.105Z,100749.71
2018-05-11T05:59:25.621Z,100752.18
2018-05-11T06:01:53.163Z,100751.87
2018-05-11T06:04:20.683Z,100748.11
2018-05-11T06:06:48.143Z,100751.55
2018-05-11T06:09:15.623Z,100747.80
2018-05-11T06:11:43.063Z,100748.68
2018-05-11T06:14:10.553Z,100749.04
2018-05-11T06:16:38.022Z,100751.22
2018-05-11T06:19:05.646Z,100749.78
2018-05-11T06:21:33.114Z,100753.13
2018-05-11T06:24:00.659Z,100752.72
2018-05-11T06:26:28.265Z,100751.58
2018-05-11T06:28:56.583Z,100752.28
2018-05-11T06:31:24.053Z,100748.12
2018-05-11T06:33:54.901Z,100759.66
2018-05-11T06:36:22.351Z,100762.08
2018-05-11T06:38:50.718Z,100763.52
2018-05-11T06:41:18.240Z,100758.78
2018-05-11T06:43:45.715Z,100761.44
2018-05-11T06:46:13.187Z,100764.78
2018-05-11T06:48:41.686Z,100766.34
2018-05-11T06:51:09.291Z,100767.47
2018-05-11T06:53:37.696Z,100775.14
2018-05-11T06:56:05.718Z,100774.01
2018-05-11T06:58:33.222Z,100774.94
2018-05-11T07:01:05.949Z,100781.18
2018-05-11T07:03:34.350Z,100781.08
2018-05-11T07:06:02.554Z,100790.00
2018-05-11T07:08:30.028Z,100785.15
2018-05-11T07:10:57.538Z,100782.87
2018-05-11T07:13:25.248Z,100777.16
2018-05-11T07:15:52.741Z,100780.56
2018-05-11T07:18:20.464Z,100783.80
2018-05-11T07:20:52.224Z,100780.41
2018-05-11T07:23:20.204Z,100778.55
2018-05-11T07:25:47.768Z,100780.00
2018-05-11T07:28:15.521Z,100777.16
2018-05-11T07:30:45.793Z,100772.16
2018-05-11T07:33:13.315Z,100778.91
2018-05-11T07:35:41.560Z,100766.55
2018-05-11T07:38:09.464Z,100777.47
2018-05-11T07:40:38.775Z,100772.00
2018-05-11T07:43:07.710Z,100774.53
2018-05-11T07:45:40.432Z,100772.58
2018-05-11T07:48:07.898Z,100775.27
2018-05-11T07:50:40.660Z,100775.11
2018-05-11T07:53:08.408Z,100771.91
2018-05-11T07:55:35.925Z,100764.50
2018-05-11T07:58:03.374Z,100772.63
2018-05-11T08:00:32.044Z,100772.98
2018-05-11T08:02:59.779Z,100769.02
2018-05-11T08:05:27.327Z,100777.69
2018-05-11T08:07:55.356Z,100775.27
2018-05-11T08:10:23.048Z,100778.24
2018-05-11T08:12:50.598Z,100781.60
2018-05-11T08:15:18.140Z,100783.60
2018-05-11T08:17:45.844Z,100783.45
2018-05-11T08:20:13.302Z,100779.53
2018-05-11T08:22:40.902Z,100776.55
2018-05-11T08:25:08.573Z,100781.39
2018-05-11T08:27:36.166Z,100778.33
2018-05-11T08:30:03.805Z,100779.41
2018-05-11T08:32:31.728Z,100781.02
2018-05-11T08:35:01.247Z,100772.61
2018-05-11T08:37:28.913Z,100780.98
2018-05-11T08:39:56.667Z,100782.47
2018-05-11T08:42:24.274Z,100775.65
2018-05-11T08:44:51.819Z,100783.13
2018-05-11T08:47:19.329Z,100779.48
2018-05-11T08:49:47.001Z,100784.25
2018-05-11T08:52:15.476Z,100776.22
2018-05-11T08:54:45.407Z,100773.84
2018-05-11T08:57:16.622Z,100784.69
2018-05-11T08:59:45.159Z,100779.78
2018-05-11T09:02:12.705Z,100773.59
2018-05-11T09:04:40.188Z,100779.33
2018-05-11T09:07:08.771Z,100783.29
2018-05-11T09:09:36.245Z,100778.84
2018-05-11T09:12:04.646Z,100781.64
2018-05-11T09:14:32.219Z,100785.27
2018-05-11T09:16:59.670Z,100782.58
2018-05-11T09:19:41.851Z,100782.75
2018-05-11T09:22:10.230Z,100780.08
2018-05-11T09:24:37.631Z,100783.41
2018-05-11T09:27:05.291Z,100781.08
2018-05-11T09:29:32.789Z,100783.20
2018-05-11T09:32:00.290Z,100784.16
2018-05-11T09:34:27.756Z,100780.61
2018-05-11T09:36:55.538Z,100784.27
2018-05-11T09:39:23.189Z,100786.51
2018-05-11T09:41:50.667Z,100782.95
2018-05-11T09:44:18.135Z,100781.41
2018-05-11T09:46:45.648Z,100779.92
2018-05-11T09:49:22.793Z,100781.11
2018-05-11T09:51:50.255Z,100776.30
2018-05-11T09:54:17.827Z,100788.72
2018-05-11T09:56:46.254Z,100781.67
2018-05-11T09:59:13.855Z,100780.54
2018-05-11T10:01:41.391Z,100775.08
2018-05-11T10:04:08.861Z,100774.42
2018-05-11T10:06:36.364Z,100777.70
2018-05-11T10:12:01.659Z,100782.02
2018-05-11T10:14:29.130Z,100776.45
2018-05-11T10:16:57.403Z,100785.78
2018-05-11T10:19:24.875Z,100785.83
2018-05-11T10:21:52.357Z,100781.95
2018-05-11T10:24:19.862Z,100782.66
2018-05-11T10:26:47.328Z,100782.00
2018-05-11T10:29:15.113Z,100780.67
2018-05-11T10:31:42.604Z,100781.48
2018-05-11T10:34:10.072Z,100785.20
2018-05-11T10:36:37.566Z,100782.73
2018-05-11T10:41:58.602Z,100782.91
2018-05-11T10:44:26.384Z,100779.02
2018-05-11T10:46:53.864Z,100781.80
2018-05-11T10:49:21.417Z,100780.49
2018-05-11T10:51:49.110Z,100783.44
2018-05-11T10:54:16.584Z,100786.75
2018-05-11T10:56:44.046Z,100784.70
2018-05-11T10:59:11.492Z,100782.41
2018-05-11T11:01:38.996Z,100776.16
2018-05-11T11:04:07.406Z,100775.69
2018-05-11T11:06:34.884Z,100777.36
2018-05-11T11:09:02.396Z,100774.89
2018-05-11T11:11:29.866Z,100771.27
2018-05-11T11:13:57.418Z,100773.23
2018-05-11T11:16:24.942Z,100767.97
2018-05-11T11:18:52.427Z,100770.46
2018-05-11T11:21:19.990Z,100771.00
2018-05-11T11:23:47.717Z,100767.50
2018-05-11T11:26:15.221Z,100765.24
2018-05-11T11:28:42.697Z,100762.34
2018-05-11T11:31:10.193Z,100768.58
2018-05-11T11:33:37.682Z,100755.16
2018-05-11T11:36:05.458Z,100755.41
2018-05-11T11:38:33.220Z,100761.98
2018-05-11T11:41:01.707Z,100757.49
2018-05-11T11:43:29.157Z,100758.11
2018-05-11T11:45:56.649Z,100750.12
2018-05-11T11:48:24.140Z,100754.39
2018-05-11T11:50:51.627Z,100747.75
2018-05-11T11:53:19.115Z,100748.20
2018-05-11T11:55:49.193Z,100742.38
2018-05-11T11:58:16.796Z,100739.69
2018-05-11T12:00:44.250Z,100732.04
2018-05-11T12:03:11.759Z,100723.37
2018-05-11T12:05:39.218Z,100729.30
2018-05-11T12:08:06.698Z,100728.41
2018-05-11T12:10:34.222Z,100723.94
2018-05-11T12:13:01.706Z,100715.00
2018-05-11T12:15:29.252Z,100719.84
2018-05-11T12:17:56.728Z,100715.78
2018-05-11T12:20:24.210Z,100719.55
2018-05-11T12:22:51.712Z,100719.70
2018-05-11T12:25:19.451Z,100721.63
2018-05-11T12:27:47.145Z,100712.45
2018-05-11T12:30:14.758Z,100711.92
2018-05-11T12:32:42.233Z,100705.56
2018-05-11T12:35:09.705Z,100709.06
2018-05-11T12:37:37.368Z,100702.09
2018-05-11T12:40:04.844Z,100699.72
2018-05-11T12:42:32.291Z,100703.38
2018-05-11T12:44:59.740Z,100700.77
2018-05-11T12:47:27.270Z,100697.63
2018-05-11T12:49:54.856Z,100694.97
2018-05-11T12:52:22.427Z,100691.05
2018-05-11T12:54:50.123Z,100700.17
2018-05-11T12:57:17.837Z,100692.20
2018-05-11T12:59:50.523Z,100686.08
2018-05-11T13:02:18.062Z,100679.38
2018-05-11T13:04:46.065Z,100670.67
2018-05-11T13:07:14.909Z,100673.16
2018-05-11T13:09:42.571Z,100669.50
2018-05-11T13:12:11.198Z,100670.10
2018-05-11T13:14:38.732Z,100667.77
2018-05-11T13:17:06.243Z,100665.72
2018-05-11T13:19:39.435Z,100660.58
2018-05-11T13:22:06.998Z,100662.61
2018-05-11T13:24:34.505Z,100663.74
2018-05-11T13:27:01.982Z,100662.88
2018-05-11T13:29:29.426Z,100659.91
2018-05-11T13:31:56.936Z,100662.65
2018-05-11T13:34:24.440Z,100658.66
2018-05-11T13:36:51.899Z,100638.23
2018-05-11T13:39:19.404Z,100646.29
2018-05-11T13:41:48.010Z,100646.95
2018-05-11T13:44:15.549Z,100641.95
2018-05-11T13:46:43.865Z,100641.58
2018-05-11T13:49:11.804Z,100637.99
2018-05-11T13:51:39.266Z,100641.98
2018-05-11T13:54:06.689Z,100643.46
2018-05-11T13:56:34.250Z,100640.55
2018-05-11T13:59:07.316Z,100639.97
2018-05-11T14:01:35.044Z,100632.69
2018-05-11T14:04:02.510Z,100634.11
2018-05-11T14:06:29.979Z,100630.98
2018-05-11T14:08:57.444Z,100630.27
2018-05-11T14:11:24.887Z,100634.41
2018-05-11T14:13:53.052Z,100631.75
2018-05-11T14:16:21.984Z,100626.89
2018-05-11T14:18:49.447Z,100631.30
2018-05-11T14:21:16.902Z,100634.17
2018-05-11T14:23:44.468Z,100634.02
2018-05-11T14:26:11.997Z,100633.34
2018-05-11T14:28:39.459Z,100628.03
2018-05-11T14:31:11.919Z,100624.24
2018-05-11T14:33:39.404Z,100626.38
2018-05-11T14:36:06.834Z,100623.98
2018-05-11T14:38:34.386Z,100635.22
2018-05-11T14:41:01.894Z,100623.35
2018-05-11T14:43:29.326Z,100610.29
2018-05-11T14:45:56.792Z,100612.73
2018-05-11T14:48:24.256Z,100610.32
2018-05-11T14:50:51.742Z,100604.67
2018-05-11T14:53:19.277Z,100606.73
2018-05-11T14:55:46.964Z,100615.78
2018-05-11T14:58:14.587Z,100612.43
2018-05-11T15:00:47.000Z,100609.59
2018-05-11T15:03:14.491Z,100603.59
2018-05-11T15:05:41.962Z,100601.05
2018-05-11T15:08:09.497Z,100598.92
2018-05-11T15:10:37.001Z,100596.13
2018-05-11T15:13:04.487Z,100592.14
2018-05-11T15:15:32.245Z,100592.81
2018-05-11T15:17:59.643Z,100591.41
2018-05-11T15:20:27.112Z,100593.04
2018-05-11T15:22:54.577Z,100592.70
2018-05-11T15:25:22.037Z,100583.42
2018-05-11T15:27:49.519Z,100584.64
2018-05-11T15:30:17.040Z,100584.31
2018-05-11T15:32:44.528Z,100576.09
2018-05-11T15:35:12.084Z,100569.12
2018-05-11T15:37:39.547Z,100569.95
2018-05-11T15:40:12.032Z,100580.38
2018-05-11T15:42:39.541Z,100578.81
2018-05-11T15:45:07.026Z,100574.98
2018-05-11T15:47:34.603Z,100578.03
2018-05-11T15:50:03.261Z,100572.94
2018-05-11T15:52:30.752Z,100578.08
2018-05-11T15:54:58.231Z,100574.25
2018-05-11T15:57:25.767Z,100571.91
2018-05-11T15:59:53.245Z,100569.97
2018-05-11T16:02:20.920Z,100562.55
2018-05-11T16:04:48.396Z,100558.00
2018-05-11T16:07:15.848Z,100560.11
2018-05-11T16:09:43.311Z,100567.86
2018-05-11T16:12:10.888Z,100559.56
2018-05-11T16:14:38.357Z,100561.98
2018-05-11T16:17:05.819Z,100553.83
2018-05-11T16:19:33.324Z,100560.51
2018-05-11T16:22:00.803Z,100556.80
2018-05-11T16:24:28.288Z,100562.58
2018-05-11T16:26:56.763Z,100558.97
2018-05-11T16:29:24.231Z,100554.21
2018-05-11T16:31:51.984Z,100559.55
2018-05-11T16:34:19.648Z,100556.38
2018-05-11T16:36:47.180Z,100561.23
2018-05-11T16:39:14.637Z,100549.91
2018-05-11T16:41:43.013Z,100551.43
2018-05-11T16:44:10.471Z,100550.59
2018-05-11T16:46:37.926Z,100549.50
2018-05-11T16:49:05.482Z,100552.11
2018-05-11T16:51:32.928Z,100552.84
2018-05-11T16:54:00.383Z,100546.55
2018-05-11T16:56:27.836Z,100535.48
2018-05-11T16:58:55.294Z,100533.91
2018-05-11T17:01:22.764Z,100538.30
2018-05-11T17:09:27.635Z,100537.53
2018-05-11T17:12:03.420Z,100534.33
2018-05-11T17:17:04.919Z,100540.16
2018-05-11T17:19:37.655Z,100541.48
2018-05-11T17:22:13.790Z,100543.10
2018-05-11T17:27:39.122Z,100546.57
2018-05-11T17:35:32.733Z,100550.24
2018-05-11T17:38:02.382Z,100555.97
2018-05-11T17:40:31.457Z,100557.96
2018-05-11T17:42:59.522Z,100546.53
2018-05-11T17:45:28.360Z,100552.73
2018-05-11T17:50:29.710Z,100546.09
2018-05-11T17:52:59.602Z,100554.22
2018-05-11T17:55:27.541Z,100560.19
2018-05-11T17:57:55.784Z,100559.52
2018-05-11T18:00:47.030Z,100559.95
2018-05-11T18:03:16.074Z,100559.22
2018-05-11T18:08:49.345Z,100565.41
2018-05-11T18:11:18.443Z,100563.25
2018-05-11T18:13:45.987Z,100567.77
2018-05-11T18:16:13.461Z,100572.25
2018-05-11T18:18:42.035Z,100572.95
2018-05-11T18:21:09.789Z,100577.84
2018-05-11T18:23:37.542Z,100575.50
2018-05-11T18:26:06.238Z,100581.77
2018-05-11T18:28:34.476Z,100585.11
2018-05-11T18:31:02.283Z,100579.37
2018-05-11T18:33:30.376Z,100586.45
2018-05-11T18:35:59.047Z,100589.30
2018-05-11T18:38:27.561Z,100589.30
2018-05-11T18:41:00.121Z,100586.32
2018-05-11T18:43:27.659Z,100594.45
2018-05-11T18:45:55.997Z,100589.70
2018-05-11T18:48:23.737Z,100595.00
2018-05-11T18:50:51.673Z,100597.19
2018-05-11T18:53:19.476Z,100594.65
2018-05-11T18:55:46.896Z,100598.71
2018-05-11T18:58:14.694Z,100599.18
2018-05-11T19:00:45.496Z,100596.74
2018-05-11T19:03:16.031Z,100595.21
2018-05-11T19:08:18.750Z,100605.17
2018-05-11T19:14:11.484Z,100613.32
2018-05-11T19:21:54.029Z,100620.58
2018-05-11T19:24:22.469Z,100614.35
2018-05-11T19:26:50.490Z,100623.85
2018-05-11T19:29:32.318Z,100627.30
2018-05-11T19:32:19.442Z,100627.21
2018-05-11T19:35:04.121Z,100631.64
2018-05-11T19:37:32.642Z,100636.77
2018-05-11T19:45:12.757Z,100630.80
2018-05-11T19:47:40.368Z,100643.62
2018-05-11T19:50:20.556Z,100644.11
2018-05-11T19:52:54.435Z,100639.39
2018-05-11T19:55:22.062Z,100648.17
2018-05-11T19:57:57.674Z,100645.41
2018-05-11T20:02:59.596Z,100650.27
2018-05-11T20:05:29.608Z,100655.40
2018-05-11T20:07:57.122Z,100651.77
2018-05-11T20:10:25.778Z,100649.52
2018-05-11T20:12:53.261Z,100651.36
2018-05-11T20:15:20.830Z,100645.05
2018-05-11T20:17:48.461Z,100647.19
2018-05-11T20:23:08.638Z,100655.28
2018-05-11T20:25:37.404Z,100647.26
2018-05-11T20:28:04.923Z,100647.92
2018-05-11T20:30:32.418Z,100647.92
2018-05-11T20:32:59.918Z,100654.49
2018-05-11T20:35:27.514Z,100657.68
2018-05-11T20:37:54.990Z,100657.92
2018-05-11T20:40:46.133Z,100664.50
2018-05-11T20:43:13.588Z,100660.94
2018-05-11T20:45:41.978Z,100667.67
2018-05-11T20:48:10.334Z,100660.37
2018-05-11T20:50:37.930Z,100661.48
2018-05-11T20:53:08.226Z,100663.64
2018-05-11T20:55:35.812Z,100660.23
2018-05-11T20:58:03.293Z,100656.84
2018-05-11T21:00:30.759Z,100661.67
2018-05-11T21:02:58.272Z,100666.20
2018-05-11T21:05:25.736Z,100669.15
2018-05-11T21:07:53.856Z,100674.61
2018-05-11T21:10:31.240Z,100669.72
2018-05-11T21:12:58.856Z,100666.46
2018-05-11T21:15:26.408Z,100666.09
2018-05-11T21:17:54.293Z,100669.89
2018-05-11T21:20:40.539Z,100672.58
2018-05-11T21:23:08.243Z,100669.97
2018-05-11T21:25:35.742Z,100670.75
2018-05-11T21:28:03.202Z,100670.38
2018-05-11T21:30:30.920Z,100673.20
2018-05-11T21:32:58.580Z,100669.56
2018-05-11T21:35:26.068Z,100672.58
2018-05-11T21:37:53.542Z,100674.01
2018-05-11T21:40:21.051Z,100674.26
2018-05-11T21:42:49.522Z,100673.56
2018-05-11T21:45:16.959Z,100669.98
2018-05-11T21:47:44.786Z,100667.30
2018-05-11T21:50:12.320Z,100665.25
2018-05-11T21:52:39.984Z,100660.89
2018-05-11T21:55:07.433Z,100666.27
2018-05-11T21:57:34.894Z,100661.70
2018-05-11T22:00:02.582Z,100657.43
2018-05-11T22:02:30.036Z,100656.70
2018-05-11T22:04:57.563Z,100654.09
2018-05-11T22:07:25.816Z,100646.43
2018-05-11T22:10:02.972Z,100648.34
2018-05-11T22:12:30.483Z,100642.88
2018-05-11T22:14:57.990Z,100640.89
2018-05-11T22:17:25.524Z,100637.10
2018-05-11T22:19:53.007Z,100634.66
2018-05-11T22:22:20.551Z,100638.61
2018-05-11T22:24:48.745Z,100633.72
2018-05-11T22:27:16.467Z,100635.80
2018-05-11T22:29:43.915Z,100643.42
2018-05-11T22:32:11.395Z,100638.53
2018-05-11T22:34:38.881Z,100643.98
2018-05-11T22:37:06.370Z,100646.59
2018-05-11T22:39:33.871Z,100645.17
2018-05-11T22:42:02.031Z,100648.34
2018-05-11T22:44:29.715Z,100646.11
2018-05-11T22:46:58.081Z,100647.08
2018-05-11T22:49:37.110Z,100646.27
2018-05-11T22:52:05.275Z,100644.46
2018-05-11T22:54:38.059Z,100639.08
2018-05-11T22:57:05.771Z,100645.16
2018-05-11T22:59:53.403Z,100640.27
2018-05-11T23:02:21.787Z,100645.48
2018-05-11T23:04:50.657Z,100643.52
2018-05-11T23:13:04.675Z,100632.03
2018-05-11T23:15:34.112Z,100631.70
2018-05-11T23:18:02.496Z,100624.38
2018-05-11T23:20:35.191Z,100629.27
2018-05-11T23:23:03.553Z,100627.20
2018-05-11T23:25:31.558Z,100629.09
2018-05-11T23:27:59.147Z,100625.77
2018-05-11T23:30:26.725Z,100624.17
2018-05-11T23:33:04.367Z,100615.74
2018-05-11T23:35:31.921Z,100617.85
2018-05-11T23:38:01.902Z,100613.27
2018-05-11T23:43:41.207Z,100611.45
2018-05-11T23:46:08.657Z,100607.10
2018-05-11T23:48:36.195Z,100606.72
2018-05-11T23:51:03.717Z,100601.08
2018-05-11T23:53:31.221Z,100594.41
2018-05-11T23:55:58.697Z,100598.34
2018-05-11T23:58:26.211Z,100595.45
